McCloud, California
Current Conditions -  °F | °C
As of 12:56 PM on Tuesday 21 Oct 2014 (Local Time) from KMHS Reporting Station
Broken Clouds Broken Clouds  
Wind Chill: 51°   Ceiling: 2300
Heat Index: 51°   Visibility: 10mi
Dew Point: 40°   Wind: 0mph
Humidity: 66%   Direction: NA
Pressure: 30.12"   Gusts: NA
Location:  41.26°N, 122.14°W
Report Text: KMHS 211956Z AUTO 00000KT 10SM BKN023 11/04 A3012 RMK AO2 SLP219 T01060044
Loading
Personal Weather Stations






























Interactive Weather Map
Tropical Storm Tracking
New forecast layout! Learn more

10-Day Weather Forecast

Advertisements
Track Severe Weather on mobile